Observations for HUMBERSIDE, United Kingdom (EGNJ)

EGNJ 172120Z 19009KT CAVOK 03/02 Q1021  
EGNJ 172050Z 19009KT CAVOK 03/02 Q1021  
EGNJ 172020Z 18008KT CAVOK 02/02 Q1021  
EGNJ 171920Z 18008KT 9999 FEW013 03/02 Q1021
EGNJ 171850Z 17008KT 9999 FEW013 02/02 Q1021
EGNJ 171820Z 17005KT 9999 FEW013 02/02 Q1021
EGNJ 171750Z 18007KT 9999 FEW013 03/02 Q1020
EGNJ 171720Z 18007KT 9999 FEW013 04/03 Q1020
EGNJ 171650Z 19007KT 9999 FEW013 06/04 Q1020
EGNJ 171620Z 21010KT 9999 FEW040 07/05 Q1020
EGNJ 171550Z 21013KT 9999 FEW030 08/05 Q1020
EGNJ 171520Z 21015KT 9999 FEW025 SCT032 07/05 Q1020 
EGNJ 171450Z 20014KT 9999 SCT023 SCT030 07/05 Q1020 
EGNJ 171420Z 20015KT 9999 SCT023 BKN030 07/05 Q1020 
EGNJ 171320Z 20014KT 8000 -SHRA FEW015 SCT026 BKN040 07/05 Q1020
EGNJ 171250Z 19011KT 8000 SHRA SCT022 BKN030 06/05 Q1020
EGNJ 171220Z 20012KT 6000 RA FEW013 BKN040 06/05 Q1020  
EGNJ 171150Z 19011KT 9999 -RA FEW013 BKN048 06/04 Q1020 
EGNJ 171050Z 19010KT 9999 -RA FEW013 BKN060 05/03 Q1020 
EGNJ 171020Z 19012KT 9999 FEW030 04/03 Q1020
EGNJ 170950Z 20010KT 9999 FEW025 04/03 Q1020
EGNJ 170920Z 18010KT 9999 FEW045 04/02 Q1020
EGNJ 170850Z 18011KT 9999 FEW045 03/02 Q1020
EGNJ 170820Z 18012KT 9999 FEW040 03/02 Q1020
EGNJ 170750Z 19010KT 9999 FEW040 02/02 Q1020
EGNJ 170720Z 19010KT 9999 FEW040 02/01 Q1020
EGNJ 170650Z 19010KT 9999 FEW035 01/01 Q1020
EGNJ 170620Z 19010KT 9999 FEW035 01/01 Q1020
EGNJ 170550Z 19010KT CAVOK 02/01 Q1020